sensor_id;sensor_type;location;lat;lon;timestamp;P1;durP1;ratioP1;P2;durP2;ratioP2
2406;SDS011;37709;53.480;9.688;2023-02-01T00:01:06;10.10;;;3.27;;
2406;SDS011;37709;53.480;9.688;2023-02-01T00:03:34;13.80;;;3.80;;
2406;SDS011;37709;53.480;9.688;2023-02-01T00:06:02;11.30;;;4.13;;
2406;SDS011;37709;53.480;9.688;2023-02-01T00:08:29;10.93;;;3.20;;
2406;SDS011;37709;53.480;9.688;2023-02-01T00:11:00;11.33;;;3.03;;
2406;SDS011;37709;53.480;9.688;2023-02-01T00:13:29;18.20;;;3.73;;
2406;SDS011;37709;53.480;9.688;2023-02-01T00:16:08;11.77;;;4.80;;
2406;SDS011;37709;53.480;9.688;2023-02-01T00:18:44;11.60;;;3.10;;
2406;SDS011;37709;53.480;9.688;2023-02-01T00:21:13;12.17;;;3.43;;
2406;SDS011;37709;53.480;9.688;2023-02-01T00:23:42;15.17;;;4.03;;
2406;SDS011;37709;53.480;9.688;2023-02-01T00:26:17;13.70;;;3.57;;
2406;SDS011;37709;53.480;9.688;2023-02-01T00:28:46;12.70;;;3.60;;
2406;SDS011;37709;53.480;9.688;2023-02-01T00:31:13;16.30;;;3.77;;
2406;SDS011;37709;53.480;9.688;2023-02-01T00:33:41;19.03;;;4.00;;
2406;SDS011;37709;53.480;9.688;2023-02-01T00:36:09;15.47;;;4.60;;
2406;SDS011;37709;53.480;9.688;2023-02-01T00:38:36;13.23;;;3.70;;
2406;SDS011;37709;53.480;9.688;2023-02-01T00:41:07;16.07;;;4.40;;
2406;SDS011;37709;53.480;9.688;2023-02-01T00:43:38;14.90;;;3.53;;
2406;SDS011;37709;53.480;9.688;2023-02-01T00:46:06;12.90;;;3.53;;
2406;SDS011;37709;53.480;9.688;2023-02-01T00:48:34;12.00;;;4.03;;
2406;SDS011;37709;53.480;9.688;2023-02-01T00:51:06;15.40;;;4.30;;
2406;SDS011;37709;53.480;9.688;2023-02-01T00:53:35;18.93;;;5.70;;
2406;SDS011;37709;53.480;9.688;2023-02-01T00:56:03;6.20;;;1.83;;
2406;SDS011;37709;53.480;9.688;2023-02-01T00:58:32;17.30;;;4.50;;
2406;SDS011;37709;53.480;9.688;2023-02-01T01:01:05;13.77;;;2.90;;
2406;SDS011;37709;53.480;9.688;2023-02-01T01:03:59;13.70;;;3.97;;
2406;SDS011;37709;53.480;9.688;2023-02-01T01:06:27;11.20;;;3.77;;
2406;SDS011;37709;53.480;9.688;2023-02-01T01:08:58;14.20;;;3.90;;
2406;SDS011;37709;53.480;9.688;2023-02-01T01:11:27;14.60;;;3.43;;
2406;SDS011;37709;53.480;9.688;2023-02-01T01:13:57;20.30;;;5.17;;
2406;SDS011;37709;53.480;9.688;2023-02-01T01:16:26;10.67;;;4.47;;
2406;SDS011;37709;53.480;9.688;2023-02-01T01:18:55;10.33;;;3.13;;
2406;SDS011;37709;53.480;9.688;2023-02-01T01:21:23;14.77;;;4.10;;
2406;SDS011;37709;53.480;9.688;2023-02-01T01:23:52;15.60;;;5.27;;
2406;SDS011;37709;53.480;9.688;2023-02-01T01:26:21;23.07;;;4.80;;
2406;SDS011;37709;53.480;9.688;2023-02-01T01:28:50;16.57;;;4.30;;
2406;SDS011;37709;53.480;9.688;2023-02-01T01:31:18;14.07;;;3.50;;
2406;SDS011;37709;53.480;9.688;2023-02-01T01:33:50;12.97;;;3.97;;
2406;SDS011;37709;53.480;9.688;2023-02-01T01:36:19;17.83;;;3.83;;
2406;SDS011;37709;53.480;9.688;2023-02-01T01:38:48;12.70;;;4.03;;
2406;SDS011;37709;53.480;9.688;2023-02-01T01:41:17;17.27;;;4.50;;
2406;SDS011;37709;53.480;9.688;2023-02-01T01:43:52;16.57;;;4.10;;
2406;SDS011;37709;53.480;9.688;2023-02-01T01:48:57;10.60;;;4.70;;
2406;SDS011;37709;53.480;9.688;2023-02-01T01:51:29;9.80;;;4.77;;
2406;SDS011;37709;53.480;9.688;2023-02-01T01:54:04;21.53;;;4.17;;
2406;SDS011;37709;53.480;9.688;2023-02-01T01:56:40;14.40;;;3.90;;
2406;SDS011;37709;53.480;9.688;2023-02-01T01:59:08;10.93;;;4.43;;
2406;SDS011;37709;53.480;9.688;2023-02-01T02:01:36;12.00;;;4.20;;
2406;SDS011;37709;53.480;9.688;2023-02-01T02:04:04;12.80;;;3.60;;
2406;SDS011;37709;53.480;9.688;2023-02-01T02:09:05;12.60;;;3.97;;
2406;SDS011;37709;53.480;9.688;2023-02-01T02:11:33;10.23;;;3.53;;
2406;SDS011;37709;53.480;9.688;2023-02-01T02:14:00;15.37;;;3.97;;
2406;SDS011;37709;53.480;9.688;2023-02-01T02:22:05;15.10;;;3.77;;
2406;SDS011;37709;53.480;9.688;2023-02-01T02:25:14;17.60;;;8.07;;
2406;SDS011;37709;53.480;9.688;2023-02-01T02:31:40;12.73;;;3.87;;
2406;SDS011;37709;53.480;9.688;2023-02-01T02:34:18;17.60;;;4.00;;
2406;SDS011;37709;53.480;9.688;2023-02-01T02:37:03;22.90;;;4.63;;
2406;SDS011;37709;53.480;9.688;2023-02-01T02:39:46;21.07;;;5.10;;
2406;SDS011;37709;53.480;9.688;2023-02-01T02:42:29;14.10;;;4.20;;
2406;SDS011;37709;53.480;9.688;2023-02-01T02:45:48;16.70;;;3.37;;
2406;SDS011;37709;53.480;9.688;2023-02-01T02:48:44;20.30;;;4.07;;
2406;SDS011;37709;53.480;9.688;2023-02-01T02:51:30;16.27;;;3.57;;
2406;SDS011;37709;53.480;9.688;2023-02-01T02:54:29;10.90;;;3.77;;
2406;SDS011;37709;53.480;9.688;2023-02-01T02:57:16;9.00;;;3.03;;
2406;SDS011;37709;53.480;9.688;2023-02-01T03:00:20;8.90;;;2.30;;
2406;SDS011;37709;53.480;9.688;2023-02-01T03:03:10;12.07;;;3.27;;
2406;SDS011;37709;53.480;9.688;2023-02-01T03:05:56;20.60;;;4.00;;
2406;SDS011;37709;53.480;9.688;2023-02-01T03:08:24;14.27;;;3.87;;
2406;SDS011;37709;53.480;9.688;2023-02-01T03:19:01;7.23;;;2.27;;
2406;SDS011;37709;53.480;9.688;2023-02-01T03:21:41;12.07;;;2.80;;
2406;SDS011;37709;53.480;9.688;2023-02-01T03:26:51;9.77;;;2.60;;
2406;SDS011;37709;53.480;9.688;2023-02-01T03:29:24;9.67;;;2.70;;
2406;SDS011;37709;53.480;9.688;2023-02-01T03:31:57;9.20;;;2.97;;
2406;SDS011;37709;53.480;9.688;2023-02-01T03:34:24;11.23;;;3.33;;
2406;SDS011;37709;53.480;9.688;2023-02-01T03:36:55;7.63;;;2.73;;
2406;SDS011;37709;53.480;9.688;2023-02-01T03:39:39;8.50;;;2.27;;
2406;SDS011;37709;53.480;9.688;2023-02-01T03:42:16;9.43;;;2.80;;
2406;SDS011;37709;53.480;9.688;2023-02-01T03:44:54;7.70;;;2.60;;
2406;SDS011;37709;53.480;9.688;2023-02-01T03:47:35;4.87;;;2.37;;
2406;SDS011;37709;53.480;9.688;2023-02-01T03:50:08;6.33;;;1.90;;
2406;SDS011;37709;53.480;9.688;2023-02-01T03:52:40;6.97;;;1.87;;
2406;SDS011;37709;53.480;9.688;2023-02-01T03:55:15;7.40;;;1.50;;
2406;SDS011;37709;53.480;9.688;2023-02-01T03:57:57;5.37;;;1.67;;
2406;SDS011;37709;53.480;9.688;2023-02-01T04:00:29;5.47;;;1.77;;
2406;SDS011;37709;53.480;9.688;2023-02-01T04:02:57;6.80;;;1.80;;
2406;SDS011;37709;53.480;9.688;2023-02-01T04:05:26;5.40;;;2.10;;
2406;SDS011;37709;53.480;9.688;2023-02-01T04:07:57;11.20;;;2.00;;
2406;SDS011;37709;53.480;9.688;2023-02-01T04:10:25;9.53;;;2.60;;
2406;SDS011;37709;53.480;9.688;2023-02-01T04:12:52;6.47;;;2.00;;
2406;SDS011;37709;53.480;9.688;2023-02-01T04:15:20;6.40;;;2.57;;
2406;SDS011;37709;53.480;9.688;2023-02-01T04:17:47;9.90;;;2.37;;
2406;SDS011;37709;53.480;9.688;2023-02-01T04:20:14;3.83;;;1.70;;
2406;SDS011;37709;53.480;9.688;2023-02-01T04:22:43;8.67;;;1.87;;
2406;SDS011;37709;53.480;9.688;2023-02-01T04:25:12;6.03;;;1.90;;
2406;SDS011;37709;53.480;9.688;2023-02-01T04:27:39;6.90;;;2.17;;
2406;SDS011;37709;53.480;9.688;2023-02-01T04:30:07;8.53;;;2.93;;
2406;SDS011;37709;53.480;9.688;2023-02-01T04:32:38;17.83;;;2.90;;
2406;SDS011;37709;53.480;9.688;2023-02-01T04:35:06;2.93;;;1.70;;
2406;SDS011;37709;53.480;9.688;2023-02-01T04:37:34;3.33;;;1.20;;
2406;SDS011;37709;53.480;9.688;2023-02-01T04:40:02;9.03;;;1.67;;
2406;SDS011;37709;53.480;9.688;2023-02-01T04:42:30;7.60;;;1.80;;
2406;SDS011;37709;53.480;9.688;2023-02-01T04:44:57;8.10;;;1.47;;
2406;SDS011;37709;53.480;9.688;2023-02-01T04:47:24;4.00;;;1.47;;
2406;SDS011;37709;53.480;9.688;2023-02-01T04:49:51;4.03;;;1.77;;
2406;SDS011;37709;53.480;9.688;2023-02-01T04:52:19;10.77;;;3.00;;
2406;SDS011;37709;53.480;9.688;2023-02-01T04:54:46;7.40;;;1.83;;
2406;SDS011;37709;53.480;9.688;2023-02-01T04:57:14;7.60;;;1.57;;
2406;SDS011;37709;53.480;9.688;2023-02-01T04:59:41;1.30;;;0.80;;
2406;SDS011;37709;53.480;9.688;2023-02-01T05:02:09;7.37;;;1.17;;
2406;SDS011;37709;53.480;9.688;2023-02-01T05:04:36;3.03;;;1.30;;
2406;SDS011;37709;53.480;9.688;2023-02-01T05:07:03;2.60;;;1.07;;
2406;SDS011;37709;53.480;9.688;2023-02-01T05:09:30;10.20;;;1.80;;
2406;SDS011;37709;53.480;9.688;2023-02-01T05:11:57;3.80;;;1.10;;
2406;SDS011;37709;53.480;9.688;2023-02-01T05:14:43;3.53;;;1.00;;
2406;SDS011;37709;53.480;9.688;2023-02-01T05:17:10;1.53;;;0.60;;
2406;SDS011;37709;53.480;9.688;2023-02-01T05:19:38;0.80;;;0.50;;
2406;SDS011;37709;53.480;9.688;2023-02-01T05:22:05;1.53;;;0.50;;
2406;SDS011;37709;53.480;9.688;2023-02-01T05:24:33;1.77;;;0.70;;
2406;SDS011;37709;53.480;9.688;2023-02-01T05:27:00;0.80;;;0.53;;
2406;SDS011;37709;53.480;9.688;2023-02-01T05:29:27;1.73;;;0.70;;
2406;SDS011;37709;53.480;9.688;2023-02-01T05:31:54;1.97;;;0.57;;
2406;SDS011;37709;53.480;9.688;2023-02-01T05:34:23;2.90;;;1.47;;
2406;SDS011;37709;53.480;9.688;2023-02-01T05:36:50;6.80;;;1.10;;
2406;SDS011;37709;53.480;9.688;2023-02-01T05:39:17;1.10;;;0.73;;
2406;SDS011;37709;53.480;9.688;2023-02-01T05:41:45;1.80;;;0.80;;
2406;SDS011;37709;53.480;9.688;2023-02-01T05:44:13;2.03;;;1.07;;
2406;SDS011;37709;53.480;9.688;2023-02-01T05:46:40;5.27;;;1.00;;
2406;SDS011;37709;53.480;9.688;2023-02-01T05:49:07;3.87;;;0.70;;
2406;SDS011;37709;53.480;9.688;2023-02-01T05:51:35;1.87;;;1.20;;
2406;SDS011;37709;53.480;9.688;2023-02-01T05:54:02;3.03;;;0.80;;
2406;SDS011;37709;53.480;9.688;2023-02-01T05:56:29;2.07;;;1.20;;
2406;SDS011;37709;53.480;9.688;2023-02-01T05:58:56;1.60;;;1.17;;
2406;SDS011;37709;53.480;9.688;2023-02-01T06:01:24;5.73;;;1.10;;
2406;SDS011;37709;53.480;9.688;2023-02-01T06:03:52;6.00;;;1.73;;
2406;SDS011;37709;53.480;9.688;2023-02-01T06:06:19;4.30;;;1.40;;
2406;SDS011;37709;53.480;9.688;2023-02-01T06:08:46;4.00;;;1.53;;
2406;SDS011;37709;53.480;9.688;2023-02-01T06:11:14;2.90;;;1.27;;
2406;SDS011;37709;53.480;9.688;2023-02-01T06:13:57;4.67;;;1.70;;
2406;SDS011;37709;53.480;9.688;2023-02-01T06:16:25;6.00;;;1.67;;
2406;SDS011;37709;53.480;9.688;2023-02-01T06:18:53;5.77;;;1.63;;
2406;SDS011;37709;53.480;9.688;2023-02-01T06:21:20;8.57;;;1.37;;
2406;SDS011;37709;53.480;9.688;2023-02-01T06:23:51;8.37;;;1.57;;
2406;SDS011;37709;53.480;9.688;2023-02-01T06:26:19;7.53;;;2.07;;
2406;SDS011;37709;53.480;9.688;2023-02-01T06:28:47;9.83;;;1.80;;
2406;SDS011;37709;53.480;9.688;2023-02-01T06:31:14;3.70;;;1.30;;
2406;SDS011;37709;53.480;9.688;2023-02-01T06:33:42;7.97;;;2.30;;
2406;SDS011;37709;53.480;9.688;2023-02-01T06:36:12;10.80;;;2.40;;
2406;SDS011;37709;53.480;9.688;2023-02-01T06:38:40;5.67;;;1.80;;
2406;SDS011;37709;53.480;9.688;2023-02-01T06:41:07;10.17;;;1.97;;
2406;SDS011;37709;53.480;9.688;2023-02-01T06:43:35;12.43;;;2.37;;
2406;SDS011;37709;53.480;9.688;2023-02-01T06:46:04;11.00;;;2.93;;
2406;SDS011;37709;53.480;9.688;2023-02-01T06:48:34;8.60;;;3.00;;
2406;SDS011;37709;53.480;9.688;2023-02-01T06:51:02;6.97;;;1.90;;
2406;SDS011;37709;53.480;9.688;2023-02-01T06:53:29;17.47;;;3.07;;
2406;SDS011;37709;53.480;9.688;2023-02-01T06:55:58;7.67;;;2.20;;
2406;SDS011;37709;53.480;9.688;2023-02-01T06:58:30;7.13;;;2.87;;
2406;SDS011;37709;53.480;9.688;2023-02-01T07:01:05;11.63;;;2.70;;
2406;SDS011;37709;53.480;9.688;2023-02-01T07:03:34;7.40;;;1.73;;
2406;SDS011;37709;53.480;9.688;2023-02-01T07:06:02;14.20;;;3.80;;
2406;SDS011;37709;53.480;9.688;2023-02-01T07:08:32;17.43;;;3.13;;
2406;SDS011;37709;53.480;9.688;2023-02-01T07:11:04;19.43;;;3.40;;
2406;SDS011;37709;53.480;9.688;2023-02-01T07:13:33;18.10;;;3.40;;
2406;SDS011;37709;53.480;9.688;2023-02-01T07:16:01;16.93;;;3.43;;
2406;SDS011;37709;53.480;9.688;2023-02-01T07:18:31;27.87;;;3.73;;
2406;SDS011;37709;53.480;9.688;2023-02-01T07:20:59;14.30;;;3.40;;
2406;SDS011;37709;53.480;9.688;2023-02-01T07:23:27;22.67;;;3.80;;
2406;SDS011;37709;53.480;9.688;2023-02-01T07:25:58;19.10;;;3.47;;
2406;SDS011;37709;53.480;9.688;2023-02-01T07:28:26;20.93;;;5.67;;
2406;SDS011;37709;53.480;9.688;2023-02-01T07:31:01;21.73;;;4.33;;
2406;SDS011;37709;53.480;9.688;2023-02-01T07:33:31;17.20;;;3.77;;
2406;SDS011;37709;53.480;9.688;2023-02-01T07:36:00;16.93;;;3.80;;
2406;SDS011;37709;53.480;9.688;2023-02-01T07:38:29;15.50;;;3.60;;
2406;SDS011;37709;53.480;9.688;2023-02-01T07:40:57;10.13;;;3.80;;
2406;SDS011;37709;53.480;9.688;2023-02-01T07:43:27;11.67;;;3.70;;
2406;SDS011;37709;53.480;9.688;2023-02-01T07:45:55;16.97;;;3.97;;
2406;SDS011;37709;53.480;9.688;2023-02-01T07:48:25;16.20;;;3.77;;
2406;SDS011;37709;53.480;9.688;2023-02-01T07:51:06;10.50;;;2.80;;
2406;SDS011;37709;53.480;9.688;2023-02-01T07:53:36;9.40;;;2.80;;
2406;SDS011;37709;53.480;9.688;2023-02-01T07:56:08;18.47;;;4.00;;
2406;SDS011;37709;53.480;9.688;2023-02-01T07:58:40;11.03;;;3.03;;
2406;SDS011;37709;53.480;9.688;2023-02-01T08:01:15;19.43;;;4.03;;
2406;SDS011;37709;53.480;9.688;2023-02-01T08:03:53;17.30;;;5.20;;
2406;SDS011;37709;53.480;9.688;2023-02-01T08:06:26;15.60;;;4.07;;
2406;SDS011;37709;53.480;9.688;2023-02-01T08:08:58;21.43;;;4.47;;
2406;SDS011;37709;53.480;9.688;2023-02-01T08:11:25;16.33;;;3.97;;
2406;SDS011;37709;53.480;9.688;2023-02-01T08:13:53;11.83;;;4.10;;
2406;SDS011;37709;53.480;9.688;2023-02-01T08:16:21;22.60;;;3.60;;
2406;SDS011;37709;53.480;9.688;2023-02-01T08:18:50;10.97;;;3.60;;
2406;SDS011;37709;53.480;9.688;2023-02-01T08:21:18;13.40;;;4.30;;
2406;SDS011;37709;53.480;9.688;2023-02-01T08:23:49;15.23;;;3.07;;
2406;SDS011;37709;53.480;9.688;2023-02-01T08:26:21;56.30;;;5.20;;
2406;SDS011;37709;53.480;9.688;2023-02-01T08:28:51;19.80;;;3.90;;
2406;SDS011;37709;53.480;9.688;2023-02-01T08:31:24;10.27;;;3.67;;
2406;SDS011;37709;53.480;9.688;2023-02-01T08:33:55;15.77;;;3.50;;
2406;SDS011;37709;53.480;9.688;2023-02-01T08:36:25;7.90;;;2.80;;
2406;SDS011;37709;53.480;9.688;2023-02-01T08:38:53;17.33;;;3.40;;
2406;SDS011;37709;53.480;9.688;2023-02-01T08:44:33;14.50;;;2.53;;
2406;SDS011;37709;53.480;9.688;2023-02-01T08:47:02;10.57;;;3.50;;
2406;SDS011;37709;53.480;9.688;2023-02-01T08:49:30;14.67;;;3.60;;
2406;SDS011;37709;53.480;9.688;2023-02-01T08:51:57;19.13;;;3.90;;
2406;SDS011;37709;53.480;9.688;2023-02-01T08:54:32;16.60;;;5.60;;
2406;SDS011;37709;53.480;9.688;2023-02-01T08:57:00;8.00;;;3.30;;
2406;SDS011;37709;53.480;9.688;2023-02-01T08:59:27;14.90;;;3.53;;
2406;SDS011;37709;53.480;9.688;2023-02-01T09:01:56;19.27;;;4.40;;
2406;SDS011;37709;53.480;9.688;2023-02-01T09:04:23;7.03;;;2.63;;
2406;SDS011;37709;53.480;9.688;2023-02-01T09:06:50;9.97;;;2.70;;
2406;SDS011;37709;53.480;9.688;2023-02-01T09:09:17;13.80;;;4.50;;
2406;SDS011;37709;53.480;9.688;2023-02-01T09:11:45;10.23;;;2.30;;
2406;SDS011;37709;53.480;9.688;2023-02-01T09:14:12;11.73;;;2.93;;
2406;SDS011;37709;53.480;9.688;2023-02-01T09:16:39;10.77;;;3.70;;
2406;SDS011;37709;53.480;9.688;2023-02-01T09:19:07;7.33;;;2.30;;
2406;SDS011;37709;53.480;9.688;2023-02-01T09:21:51;4.73;;;2.10;;
2406;SDS011;37709;53.480;9.688;2023-02-01T09:24:19;14.47;;;3.40;;
2406;SDS011;37709;53.480;9.688;2023-02-01T09:26:46;15.60;;;2.97;;
2406;SDS011;37709;53.480;9.688;2023-02-01T09:29:13;8.27;;;2.40;;
2406;SDS011;37709;53.480;9.688;2023-02-01T09:31:41;12.73;;;3.67;;
2406;SDS011;37709;53.480;9.688;2023-02-01T09:34:23;10.17;;;2.80;;
2406;SDS011;37709;53.480;9.688;2023-02-01T09:36:50;18.93;;;3.33;;
2406;SDS011;37709;53.480;9.688;2023-02-01T09:39:18;8.10;;;2.93;;
2406;SDS011;37709;53.480;9.688;2023-02-01T09:41:48;11.80;;;2.67;;
2406;SDS011;37709;53.480;9.688;2023-02-01T09:44:34;9.73;;;3.67;;
2406;SDS011;37709;53.480;9.688;2023-02-01T09:47:14;7.70;;;2.63;;
2406;SDS011;37709;53.480;9.688;2023-02-01T09:50:08;8.43;;;2.47;;
2406;SDS011;37709;53.480;9.688;2023-02-01T09:52:44;11.23;;;3.00;;
2406;SDS011;37709;53.480;9.688;2023-02-01T09:55:36;9.90;;;3.23;;
2406;SDS011;37709;53.480;9.688;2023-02-01T09:58:11;10.60;;;3.30;;
2406;SDS011;37709;53.480;9.688;2023-02-01T10:00:49;11.57;;;2.77;;
2406;SDS011;37709;53.480;9.688;2023-02-01T10:03:19;5.23;;;2.03;;
2406;SDS011;37709;53.480;9.688;2023-02-01T10:05:51;12.43;;;2.77;;
2406;SDS011;37709;53.480;9.688;2023-02-01T10:11:39;10.93;;;2.87;;
2406;SDS011;37709;53.480;9.688;2023-02-01T10:25:55;9.33;;;2.50;;
2406;SDS011;37709;53.480;9.688;2023-02-01T10:28:28;6.80;;;2.53;;
2406;SDS011;37709;53.480;9.688;2023-02-01T10:31:00;10.87;;;3.00;;
2406;SDS011;37709;53.480;9.688;2023-02-01T10:33:36;9.80;;;2.40;;
2406;SDS011;37709;53.480;9.688;2023-02-01T10:36:25;10.33;;;2.70;;
2406;SDS011;37709;53.480;9.688;2023-02-01T10:38:58;21.93;;;3.37;;
2406;SDS011;37709;53.480;9.688;2023-02-01T10:41:30;8.40;;;2.57;;
2406;SDS011;37709;53.480;9.688;2023-02-01T10:44:03;10.73;;;2.50;;
2406;SDS011;37709;53.480;9.688;2023-02-01T10:46:34;7.07;;;1.73;;
2406;SDS011;37709;53.480;9.688;2023-02-01T10:49:03;7.87;;;2.87;;
2406;SDS011;37709;53.480;9.688;2023-02-01T10:51:38;11.70;;;3.50;;
2406;SDS011;37709;53.480;9.688;2023-02-01T10:54:16;4.93;;;2.33;;
2406;SDS011;37709;53.480;9.688;2023-02-01T10:56:48;17.30;;;2.67;;
2406;SDS011;37709;53.480;9.688;2023-02-01T10:59:20;11.40;;;2.37;;
2406;SDS011;37709;53.480;9.688;2023-02-01T11:01:57;12.00;;;3.93;;
2406;SDS011;37709;53.480;9.688;2023-02-01T11:04:36;9.13;;;2.33;;
2406;SDS011;37709;53.480;9.688;2023-02-01T11:07:16;7.53;;;3.17;;
2406;SDS011;37709;53.480;9.688;2023-02-01T11:09:51;7.03;;;1.93;;
2406;SDS011;37709;53.480;9.688;2023-02-01T11:12:25;13.17;;;3.50;;
2406;SDS011;37709;53.480;9.688;2023-02-01T11:14:57;9.20;;;2.60;;
2406;SDS011;37709;53.480;9.688;2023-02-01T11:17:45;10.57;;;3.20;;
2406;SDS011;37709;53.480;9.688;2023-02-01T11:20:18;13.10;;;2.70;;
2406;SDS011;37709;53.480;9.688;2023-02-01T11:22:53;11.37;;;2.80;;
2406;SDS011;37709;53.480;9.688;2023-02-01T11:25:23;8.90;;;3.40;;
2406;SDS011;37709;53.480;9.688;2023-02-01T11:27:53;8.93;;;2.60;;
2406;SDS011;37709;53.480;9.688;2023-02-01T11:30:26;6.43;;;2.27;;
2406;SDS011;37709;53.480;9.688;2023-02-01T11:33:03;17.93;;;3.60;;
2406;SDS011;37709;53.480;9.688;2023-02-01T11:35:33;9.50;;;2.73;;
2406;SDS011;37709;53.480;9.688;2023-02-01T11:38:10;5.80;;;2.50;;
2406;SDS011;37709;53.480;9.688;2023-02-01T11:40:52;8.53;;;2.37;;
2406;SDS011;37709;53.480;9.688;2023-02-01T11:43:22;7.53;;;2.30;;
2406;SDS011;37709;53.480;9.688;2023-02-01T11:45:56;5.87;;;1.60;;
2406;SDS011;37709;53.480;9.688;2023-02-01T11:48:26;7.73;;;2.40;;
2406;SDS011;37709;53.480;9.688;2023-02-01T11:51:15;15.43;;;2.43;;
2406;SDS011;37709;53.480;9.688;2023-02-01T11:59:30;3.40;;;1.50;;
2406;SDS011;37709;53.480;9.688;2023-02-01T12:08:16;5.43;;;2.07;;
2406;SDS011;37709;53.480;9.688;2023-02-01T12:11:08;3.30;;;1.07;;
2406;SDS011;37709;53.480;9.688;2023-02-01T12:13:55;4.70;;;1.00;;
2406;SDS011;37709;53.480;9.688;2023-02-01T12:16:42;2.90;;;0.80;;
2406;SDS011;37709;53.480;9.688;2023-02-01T12:19:26;4.17;;;1.00;;
2406;SDS011;37709;53.480;9.688;2023-02-01T12:22:07;0.60;;;0.40;;
2406;SDS011;37709;53.480;9.688;2023-02-01T12:24:50;0.63;;;0.57;;
2406;SDS011;37709;53.480;9.688;2023-02-01T12:27:42;0.80;;;0.40;;
2406;SDS011;37709;53.480;9.688;2023-02-01T12:30:40;1.40;;;0.80;;
2406;SDS011;37709;53.480;9.688;2023-02-01T12:35:50;1.43;;;0.60;;
2406;SDS011;37709;53.480;9.688;2023-02-01T12:44:27;1.50;;;0.60;;
2406;SDS011;37709;53.480;9.688;2023-02-01T12:47:23;0.90;;;0.70;;
2406;SDS011;37709;53.480;9.688;2023-02-01T12:52:49;0.60;;;0.50;;
2406;SDS011;37709;53.480;9.688;2023-02-01T12:55:34;1.67;;;0.60;;
2406;SDS011;37709;53.480;9.688;2023-02-01T12:58:13;0.67;;;0.50;;
2406;SDS011;37709;53.480;9.688;2023-02-01T13:01:07;0.60;;;0.40;;
2406;SDS011;37709;53.480;9.688;2023-02-01T13:03:58;0.60;;;0.43;;
2406;SDS011;37709;53.480;9.688;2023-02-01T13:11:53;0.50;;;0.30;;
2406;SDS011;37709;53.480;9.688;2023-02-01T13:14:45;1.00;;;0.40;;
2406;SDS011;37709;53.480;9.688;2023-02-01T13:17:27;1.63;;;0.43;;
2406;SDS011;37709;53.480;9.688;2023-02-01T13:20:06;1.23;;;0.60;;
2406;SDS011;37709;53.480;9.688;2023-02-01T13:22:51;1.60;;;0.70;;
2406;SDS011;37709;53.480;9.688;2023-02-01T13:25:27;1.00;;;0.50;;
2406;SDS011;37709;53.480;9.688;2023-02-01T13:37:44;1.13;;;0.90;;
2406;SDS011;37709;53.480;9.688;2023-02-01T13:40:53;2.10;;;0.50;;
2406;SDS011;37709;53.480;9.688;2023-02-01T13:43:27;1.50;;;0.80;;
2406;SDS011;37709;53.480;9.688;2023-02-01T13:46:01;1.10;;;0.73;;
2406;SDS011;37709;53.480;9.688;2023-02-01T13:51:02;4.97;;;0.90;;
2406;SDS011;37709;53.480;9.688;2023-02-01T13:53:30;0.97;;;0.70;;
2406;SDS011;37709;53.480;9.688;2023-02-01T13:56:01;1.60;;;0.90;;
2406;SDS011;37709;53.480;9.688;2023-02-01T13:58:34;2.90;;;0.70;;
2406;SDS011;37709;53.480;9.688;2023-02-01T14:03:54;5.03;;;1.37;;
2406;SDS011;37709;53.480;9.688;2023-02-01T14:11:44;5.40;;;1.07;;
2406;SDS011;37709;53.480;9.688;2023-02-01T14:19:21;4.50;;;1.10;;
2406;SDS011;37709;53.480;9.688;2023-02-01T14:21:54;3.87;;;1.30;;
2406;SDS011;37709;53.480;9.688;2023-02-01T14:24:31;6.00;;;1.20;;
2406;SDS011;37709;53.480;9.688;2023-02-01T14:29:50;2.50;;;1.03;;
2406;SDS011;37709;53.480;9.688;2023-02-01T14:32:25;1.37;;;1.00;;
2406;SDS011;37709;53.480;9.688;2023-02-01T14:34:59;2.07;;;0.83;;
2406;SDS011;37709;53.480;9.688;2023-02-01T14:37:29;3.23;;;0.67;;
2406;SDS011;37709;53.480;9.688;2023-02-01T14:42:35;3.87;;;1.20;;
2406;SDS011;37709;53.480;9.688;2023-02-01T14:47:46;1.50;;;1.07;;
2406;SDS011;37709;53.480;9.688;2023-02-01T14:55:42;4.00;;;1.40;;
2406;SDS011;37709;53.480;9.688;2023-02-01T15:01:03;8.03;;;1.53;;
2406;SDS011;37709;53.480;9.688;2023-02-01T15:06:47;3.60;;;1.30;;
2406;SDS011;37709;53.480;9.688;2023-02-01T15:09:15;2.97;;;1.10;;
2406;SDS011;37709;53.480;9.688;2023-02-01T15:12:01;5.53;;;1.63;;
2406;SDS011;37709;53.480;9.688;2023-02-01T15:19:53;3.83;;;1.43;;
2406;SDS011;37709;53.480;9.688;2023-02-01T15:22:26;6.93;;;2.00;;
2406;SDS011;37709;53.480;9.688;2023-02-01T15:24:59;6.77;;;1.77;;
2406;SDS011;37709;53.480;9.688;2023-02-01T15:27:27;2.70;;;1.13;;
2406;SDS011;37709;53.480;9.688;2023-02-01T15:30:04;7.77;;;1.50;;
2406;SDS011;37709;53.480;9.688;2023-02-01T15:32:35;8.33;;;2.30;;
2406;SDS011;37709;53.480;9.688;2023-02-01T15:40:54;11.73;;;3.03;;
2406;SDS011;37709;53.480;9.688;2023-02-01T15:46:23;12.67;;;3.10;;
2406;SDS011;37709;53.480;9.688;2023-02-01T15:48:57;13.20;;;2.57;;
2406;SDS011;37709;53.480;9.688;2023-02-01T15:51:26;7.87;;;2.30;;
2406;SDS011;37709;53.480;9.688;2023-02-01T15:54:04;11.27;;;2.40;;
2406;SDS011;37709;53.480;9.688;2023-02-01T15:56:35;10.53;;;3.23;;
2406;SDS011;37709;53.480;9.688;2023-02-01T15:59:06;6.53;;;2.03;;
2406;SDS011;37709;53.480;9.688;2023-02-01T16:01:41;14.53;;;3.40;;
2406;SDS011;37709;53.480;9.688;2023-02-01T16:04:16;9.00;;;3.30;;
2406;SDS011;37709;53.480;9.688;2023-02-01T16:06:47;9.97;;;2.57;;
2406;SDS011;37709;53.480;9.688;2023-02-01T16:13:02;12.83;;;3.00;;
2406;SDS011;37709;53.480;9.688;2023-02-01T16:15:09;12.90;;;3.60;;
2406;SDS011;37709;53.480;9.688;2023-02-01T16:17:37;27.30;;;5.80;;
2406;SDS011;37709;53.480;9.688;2023-02-01T16:20:05;13.80;;;4.93;;
2406;SDS011;37709;53.480;9.688;2023-02-01T16:22:33;14.77;;;3.87;;
2406;SDS011;37709;53.480;9.688;2023-02-01T16:25:00;21.17;;;3.00;;
2406;SDS011;37709;53.480;9.688;2023-02-01T16:27:28;17.33;;;3.17;;
2406;SDS011;37709;53.480;9.688;2023-02-01T16:29:55;20.13;;;4.90;;
2406;SDS011;37709;53.480;9.688;2023-02-01T16:32:23;10.03;;;2.53;;
2406;SDS011;37709;53.480;9.688;2023-02-01T16:34:51;14.77;;;3.83;;
2406;SDS011;37709;53.480;9.688;2023-02-01T16:37:21;13.77;;;4.00;;
2406;SDS011;37709;53.480;9.688;2023-02-01T16:39:49;11.13;;;3.53;;
2406;SDS011;37709;53.480;9.688;2023-02-01T16:42:17;20.10;;;4.47;;
2406;SDS011;37709;53.480;9.688;2023-02-01T16:44:44;27.73;;;4.60;;
2406;SDS011;37709;53.480;9.688;2023-02-01T16:47:16;15.07;;;4.07;;
2406;SDS011;37709;53.480;9.688;2023-02-01T16:49:48;22.57;;;4.67;;
2406;SDS011;37709;53.480;9.688;2023-02-01T16:52:19;22.13;;;3.90;;
2406;SDS011;37709;53.480;9.688;2023-02-01T16:54:49;7.07;;;2.20;;
2406;SDS011;37709;53.480;9.688;2023-02-01T16:57:17;24.40;;;4.73;;
2406;SDS011;37709;53.480;9.688;2023-02-01T16:59:46;18.63;;;4.20;;
2406;SDS011;37709;53.480;9.688;2023-02-01T17:02:16;21.73;;;4.47;;
2406;SDS011;37709;53.480;9.688;2023-02-01T17:04:45;21.67;;;5.10;;
2406;SDS011;37709;53.480;9.688;2023-02-01T17:07:16;20.00;;;4.10;;
2406;SDS011;37709;53.480;9.688;2023-02-01T17:09:45;22.43;;;5.30;;
2406;SDS011;37709;53.480;9.688;2023-02-01T17:12:24;15.93;;;4.03;;
2406;SDS011;37709;53.480;9.688;2023-02-01T17:14:57;8.17;;;3.40;;
2406;SDS011;37709;53.480;9.688;2023-02-01T17:17:25;8.53;;;2.50;;
2406;SDS011;37709;53.480;9.688;2023-02-01T17:20:04;12.47;;;3.00;;
2406;SDS011;37709;53.480;9.688;2023-02-01T17:22:33;9.47;;;2.87;;
2406;SDS011;37709;53.480;9.688;2023-02-01T17:25:00;9.33;;;3.73;;
2406;SDS011;37709;53.480;9.688;2023-02-01T17:27:28;12.20;;;3.17;;
2406;SDS011;37709;53.480;9.688;2023-02-01T17:29:56;6.10;;;2.87;;
2406;SDS011;37709;53.480;9.688;2023-02-01T17:32:24;8.40;;;3.00;;
2406;SDS011;37709;53.480;9.688;2023-02-01T17:34:52;8.47;;;3.20;;
2406;SDS011;37709;53.480;9.688;2023-02-01T17:37:26;10.00;;;3.30;;
2406;SDS011;37709;53.480;9.688;2023-02-01T17:39:58;12.83;;;2.47;;
2406;SDS011;37709;53.480;9.688;2023-02-01T17:42:27;17.83;;;3.17;;